createdAt,value
2018-01-22T00:00:38.837Z,7.37
2018-01-22T00:03:05.440Z,6.30
2018-01-22T00:05:32.035Z,5.90
2018-01-22T00:07:58.639Z,7.20
2018-01-22T00:10:25.240Z,6.30
2018-01-22T00:12:51.827Z,6.17
2018-01-22T00:15:18.445Z,6.23
2018-01-22T00:17:45.039Z,6.93
2018-01-22T00:20:11.628Z,6.10
2018-01-22T00:22:39.203Z,6.23
2018-01-22T00:25:05.801Z,5.97
2018-01-22T00:27:32.423Z,6.10
2018-01-22T00:29:59.029Z,5.47
2018-01-22T00:32:25.624Z,6.33
2018-01-22T00:34:52.211Z,5.90
2018-01-22T00:37:18.803Z,5.93
2018-01-22T00:39:45.415Z,6.40
2018-01-22T00:42:11.999Z,6.00
2018-01-22T00:44:38.636Z,5.80
2018-01-22T00:47:05.221Z,5.80
2018-01-22T00:49:31.820Z,5.90
2018-01-22T00:51:58.415Z,5.17
2018-01-22T00:54:25.003Z,5.57
2018-01-22T00:56:51.599Z,5.83
2018-01-22T00:59:18.192Z,5.67
2018-01-22T01:01:44.799Z,4.90
2018-01-22T01:04:11.384Z,5.17
2018-01-22T01:06:37.999Z,5.00
2018-01-22T01:09:04.579Z,5.30
2018-01-22T01:11:31.163Z,5.13
2018-01-22T01:13:57.760Z,4.90
2018-01-22T01:16:24.381Z,5.30
2018-01-22T01:18:50.988Z,4.93
2018-01-22T01:21:17.575Z,4.77
2018-01-22T01:23:44.166Z,5.50
2018-01-22T01:26:10.763Z,4.90
2018-01-22T01:28:37.364Z,4.90
2018-01-22T01:31:03.955Z,5.10
2018-01-22T01:33:30.543Z,4.80
2018-01-22T01:35:57.394Z,4.93
2018-01-22T01:38:23.975Z,4.90
2018-01-22T01:40:50.642Z,4.90
2018-01-22T01:43:17.219Z,4.53
2018-01-22T01:45:43.820Z,4.93
2018-01-22T01:48:10.403Z,4.30
2018-01-22T01:50:36.999Z,4.60
2018-01-22T01:53:03.935Z,4.50
2018-01-22T01:55:30.523Z,4.30
2018-01-22T01:57:57.111Z,4.67
2018-01-22T02:00:23.706Z,4.20
2018-01-22T02:02:50.299Z,3.67
2018-01-22T02:05:16.896Z,3.97
2018-01-22T02:07:43.491Z,4.30
2018-01-22T02:10:10.100Z,3.60
2018-01-22T02:12:36.721Z,3.93
2018-01-22T02:15:03.303Z,3.60
2018-01-22T02:17:29.916Z,3.30
2018-01-22T02:19:56.499Z,3.43
2018-01-22T02:22:23.092Z,3.90
2018-01-22T02:24:49.683Z,3.87
2018-01-22T02:27:16.571Z,3.57
2018-01-22T02:29:43.167Z,4.40
2018-01-22T02:32:09.755Z,3.90
2018-01-22T02:34:37.213Z,3.57
2018-01-22T02:37:03.807Z,3.20
2018-01-22T02:39:30.404Z,3.67
2018-01-22T02:41:57.000Z,3.70
2018-01-22T02:44:23.596Z,3.37
2018-01-22T02:46:50.191Z,3.53
2018-01-22T02:49:16.792Z,3.43
2018-01-22T02:51:43.407Z,3.37
2018-01-22T02:54:09.999Z,3.00
2018-01-22T02:56:36.899Z,2.87
2018-01-22T02:59:03.483Z,2.83
2018-01-22T03:01:30.076Z,2.77
2018-01-22T03:03:56.672Z,2.70
2018-01-22T03:06:23.255Z,2.70
2018-01-22T03:08:49.860Z,2.23
2018-01-22T03:11:16.450Z,2.80
2018-01-22T03:13:43.043Z,2.60
2018-01-22T03:16:09.637Z,2.80
2018-01-22T03:18:36.233Z,2.63
2018-01-22T03:21:02.827Z,2.93
2018-01-22T03:23:29.415Z,2.43
2018-01-22T03:25:56.007Z,2.60
2018-01-22T03:28:22.600Z,2.80
2018-01-22T03:30:49.192Z,2.50
2018-01-22T03:33:15.803Z,2.40
2018-01-22T03:35:42.392Z,2.30
2018-01-22T03:38:08.976Z,2.10
2018-01-22T03:40:35.571Z,2.03
2018-01-22T03:43:02.159Z,2.30
2018-01-22T03:45:28.759Z,2.10
2018-01-22T03:47:55.367Z,2.10
2018-01-22T03:50:21.951Z,2.17
2018-01-22T03:52:48.547Z,2.10
2018-01-22T03:55:15.136Z,1.93
2018-01-22T03:57:41.975Z,2.13
2018-01-22T04:00:08.565Z,2.00
2018-01-22T04:02:35.211Z,1.90
2018-01-22T04:05:01.803Z,2.07
2018-01-22T04:07:28.396Z,2.13
2018-01-22T04:09:55.299Z,1.80
2018-01-22T04:12:21.891Z,1.77
2018-01-22T04:14:48.480Z,1.90
2018-01-22T04:17:15.071Z,1.97
2018-01-22T04:19:41.659Z,1.90
2018-01-22T04:22:08.251Z,1.77
2018-01-22T04:24:34.883Z,1.60
2018-01-22T04:27:01.459Z,1.87
2018-01-22T04:29:28.043Z,1.60
2018-01-22T04:31:54.650Z,1.80
2018-01-22T04:34:21.247Z,1.67
2018-01-22T04:36:47.843Z,1.50
2018-01-22T04:39:14.431Z,1.77
2018-01-22T04:41:41.030Z,1.53
2018-01-22T04:44:07.659Z,1.40
2018-01-22T04:46:34.246Z,1.53
2018-01-22T04:49:00.848Z,1.30
2018-01-22T04:51:27.435Z,1.60
2018-01-22T04:53:54.029Z,1.50
2018-01-22T04:56:20.635Z,1.50
2018-01-22T04:58:47.223Z,1.27
2018-01-22T05:01:13.824Z,1.80
2018-01-22T05:03:40.420Z,1.60
2018-01-22T05:06:07.027Z,1.60
2018-01-22T05:08:33.623Z,1.60
2018-01-22T05:11:00.211Z,1.40
2018-01-22T05:13:26.815Z,1.77
2018-01-22T05:15:53.403Z,1.63
2018-01-22T05:18:19.987Z,1.40
2018-01-22T05:20:46.591Z,1.40
2018-01-22T05:23:13.199Z,1.50
2018-01-22T05:25:39.795Z,1.70
2018-01-22T05:28:06.388Z,1.60
2018-01-22T05:30:32.979Z,1.53
2018-01-22T05:32:59.579Z,1.77
2018-01-22T05:35:26.168Z,1.63
2018-01-22T05:37:53.060Z,1.50
2018-01-22T05:40:19.651Z,1.70
2018-01-22T05:42:46.248Z,1.47
2018-01-22T05:45:12.846Z,1.60
2018-01-22T05:47:39.443Z,1.70
2018-01-22T05:50:06.049Z,1.60
2018-01-22T05:52:32.636Z,1.70
2018-01-22T05:54:59.228Z,1.57
2018-01-22T05:57:25.823Z,1.70
2018-01-22T05:59:52.416Z,1.30
2018-01-22T06:02:19.049Z,1.60
2018-01-22T06:04:45.623Z,1.50
2018-01-22T06:07:12.217Z,1.53
2018-01-22T06:09:38.814Z,1.30
2018-01-22T06:12:05.403Z,1.40
2018-01-22T06:14:32.031Z,1.40
2018-01-22T06:16:58.701Z,1.30
2018-01-22T06:19:25.294Z,1.60
2018-01-22T06:21:51.891Z,1.70
2018-01-22T06:24:18.491Z,1.40
2018-01-22T06:26:45.404Z,1.40
2018-01-22T06:29:11.995Z,1.70
2018-01-22T06:31:38.591Z,1.70
2018-01-22T06:34:05.213Z,1.50
2018-01-22T06:36:31.787Z,1.80
2018-01-22T06:38:58.399Z,2.00
2018-01-22T06:41:24.987Z,1.50
2018-01-22T06:43:51.571Z,1.73
2018-01-22T06:46:18.168Z,1.83
2018-01-22T06:48:44.763Z,2.00
2018-01-22T06:51:11.720Z,2.10
2018-01-22T06:53:38.316Z,2.27
2018-01-22T06:56:04.905Z,2.30
2018-01-22T06:58:31.495Z,2.00
2018-01-22T07:00:58.088Z,2.30
2018-01-22T07:03:24.687Z,2.30
2018-01-22T07:05:51.300Z,2.30
2018-01-22T07:08:17.896Z,2.13
2018-01-22T07:10:44.491Z,2.00
2018-01-22T07:13:11.079Z,2.27
2018-01-22T07:15:37.684Z,2.30
2018-01-22T07:18:04.280Z,2.30
2018-01-22T07:20:30.869Z,2.50
2018-01-22T07:22:57.468Z,2.40
2018-01-22T07:25:24.067Z,2.30
2018-01-22T07:27:50.659Z,2.47
2018-01-22T07:30:17.249Z,3.30
2018-01-22T07:32:43.846Z,2.23
2018-01-22T07:35:10.439Z,2.60
2018-01-22T07:37:37.035Z,3.30
2018-01-22T07:40:03.635Z,2.97
2018-01-22T07:42:30.227Z,2.90
2018-01-22T07:44:56.818Z,3.60
2018-01-22T07:47:23.407Z,3.10
2018-01-22T07:49:50.252Z,3.10
2018-01-22T07:52:16.846Z,3.70
2018-01-22T07:54:43.452Z,3.80
2018-01-22T07:57:10.047Z,3.67
2018-01-22T07:59:36.634Z,3.90
2018-01-22T08:02:03.236Z,4.43
2018-01-22T08:04:29.830Z,4.20
2018-01-22T08:06:56.416Z,4.33
2018-01-22T08:09:23.012Z,4.33
2018-01-22T08:11:49.610Z,5.20
2018-01-22T08:14:16.272Z,4.70
2018-01-22T08:16:42.820Z,3.77
2018-01-22T08:19:09.416Z,4.40
2018-01-22T08:21:36.019Z,4.03
2018-01-22T08:24:02.607Z,3.70
2018-01-22T08:26:29.589Z,4.40
2018-01-22T08:28:56.139Z,4.47
2018-01-22T08:31:22.727Z,4.93
2018-01-22T08:33:49.327Z,4.77
2018-01-22T08:36:15.915Z,4.03
2018-01-22T08:38:42.543Z,4.60
2018-01-22T08:41:09.144Z,4.30
2018-01-22T08:43:35.741Z,3.63
2018-01-22T08:46:02.335Z,4.50
2018-01-22T08:48:28.936Z,3.87
2018-01-22T08:50:55.535Z,3.80
2018-01-22T08:53:22.122Z,4.83
2018-01-22T08:55:48.721Z,4.13
2018-01-22T08:58:15.314Z,5.00
2018-01-22T09:00:41.903Z,4.27
2018-01-22T09:03:08.536Z,4.80
2018-01-22T09:05:35.145Z,5.10
2018-01-22T09:08:01.736Z,5.30
2018-01-22T09:10:28.327Z,5.60
2018-01-22T09:12:54.921Z,5.20
2018-01-22T09:15:21.816Z,5.50
2018-01-22T09:17:48.407Z,6.20
2018-01-22T09:20:14.995Z,5.90
2018-01-22T09:22:41.599Z,6.97
2018-01-22T09:25:08.192Z,6.33
2018-01-22T09:27:35.090Z,6.50
2018-01-22T09:30:01.685Z,6.70
2018-01-22T09:32:28.273Z,7.23
2018-01-22T09:34:54.876Z,6.00
2018-01-22T09:37:21.474Z,6.53
2018-01-22T09:39:48.079Z,10.93
2018-01-22T09:42:14.675Z,9.50
2018-01-22T09:44:41.274Z,8.43
2018-01-22T09:47:07.874Z,9.03
2018-01-22T09:49:34.468Z,10.70
2018-01-22T09:52:01.115Z,10.63
2018-01-22T09:54:27.716Z,10.47
2018-01-22T09:56:54.324Z,9.50
2018-01-22T09:59:20.919Z,9.60
2018-01-22T10:01:47.519Z,11.80
2018-01-22T10:04:14.128Z,11.30
2018-01-22T10:06:40.721Z,9.83
2018-01-22T10:09:07.639Z,10.20
2018-01-22T10:11:34.285Z,11.50
2018-01-22T10:14:00.876Z,11.20
2018-01-22T10:16:27.476Z,11.83
2018-01-22T10:18:54.078Z,12.80
2018-01-22T10:21:20.691Z,12.57
2018-01-22T10:23:47.294Z,11.30
2018-01-22T10:26:13.891Z,11.10
2018-01-22T10:28:40.495Z,11.03
2018-01-22T10:31:07.103Z,10.30
2018-01-22T10:33:33.707Z,11.10
2018-01-22T10:36:00.316Z,10.20
2018-01-22T10:38:26.923Z,11.13
2018-01-22T10:40:53.547Z,12.23
2018-01-22T10:43:20.430Z,11.63
2018-01-22T10:45:47.029Z,12.20
2018-01-22T10:48:13.624Z,12.57
2018-01-22T10:50:40.227Z,12.00
2018-01-22T10:53:06.828Z,14.30
2018-01-22T10:55:33.476Z,12.13
2018-01-22T10:58:00.072Z,12.63
2018-01-22T11:00:26.699Z,12.40
2018-01-22T11:02:53.303Z,12.60
2018-01-22T11:05:19.911Z,12.60
2018-01-22T11:07:46.518Z,13.20
2018-01-22T11:10:13.120Z,13.50
2018-01-22T11:12:39.728Z,12.77
2018-01-22T11:15:06.336Z,15.57
2018-01-22T11:17:32.935Z,13.23
2018-01-22T11:19:59.539Z,12.40
2018-01-22T11:22:26.139Z,14.23
2018-01-22T11:24:53.076Z,14.10
2018-01-22T11:27:19.675Z,13.40
2018-01-22T11:29:46.271Z,16.00
2018-01-22T11:32:12.886Z,13.70
2018-01-22T11:34:39.507Z,14.20
2018-01-22T11:37:06.116Z,15.20
2018-01-22T11:39:32.716Z,14.73
2018-01-22T11:41:59.310Z,15.70
2018-01-22T11:44:25.919Z,14.53
2018-01-22T11:46:52.511Z,16.00
2018-01-22T11:49:19.120Z,13.67
2018-01-22T11:51:45.721Z,15.20
2018-01-22T11:54:12.320Z,14.80
2018-01-22T11:56:38.991Z,13.57
2018-01-22T11:59:05.628Z,14.00
2018-01-22T12:01:32.260Z,13.77
2018-01-22T12:03:58.843Z,14.37
2018-01-22T12:06:25.451Z,14.43
2018-01-22T12:08:52.061Z,14.33
2018-01-22T12:11:18.655Z,13.80
2018-01-22T12:13:45.263Z,12.97
2018-01-22T12:16:11.871Z,12.47
2018-01-22T12:18:38.483Z,9.70
2018-01-22T12:21:05.090Z,9.13
2018-01-22T12:23:31.680Z,9.20
2018-01-22T12:25:58.299Z,10.23
2018-01-22T12:28:24.889Z,9.70
2018-01-22T12:30:51.484Z,9.00
2018-01-22T12:33:18.075Z,9.17
2018-01-22T12:35:44.676Z,8.93
2018-01-22T12:38:11.292Z,8.30
2018-01-22T12:40:37.891Z,8.33
2018-01-22T12:43:04.491Z,8.90
2018-01-22T12:45:31.091Z,8.00
2018-01-22T12:47:57.683Z,8.27
2018-01-22T12:50:24.292Z,8.70
2018-01-22T12:52:50.913Z,9.50
2018-01-22T12:55:17.509Z,9.17
2018-01-22T12:57:44.114Z,9.43
2018-01-22T13:00:10.709Z,9.10
2018-01-22T13:02:37.327Z,8.53
2018-01-22T13:05:03.915Z,7.83
2018-01-22T13:07:30.539Z,9.40
2018-01-22T13:09:57.144Z,8.83
2018-01-22T13:12:23.738Z,10.10
2018-01-22T13:14:50.343Z,9.80
2018-01-22T13:17:16.939Z,9.60
2018-01-22T13:19:43.540Z,9.63
2018-01-22T13:22:10.148Z,10.80
2018-01-22T13:24:36.747Z,11.20
2018-01-22T13:27:03.605Z,11.20
2018-01-22T13:29:30.199Z,11.70
2018-01-22T13:31:56.844Z,10.77
2018-01-22T13:34:23.399Z,11.53
2018-01-22T13:36:50.007Z,11.40
2018-01-22T13:39:16.604Z,12.10
2018-01-22T13:41:43.510Z,11.13
2018-01-22T13:44:10.116Z,11.97
2018-01-22T13:46:36.721Z,11.00
2018-01-22T13:49:03.624Z,10.67
2018-01-22T13:51:30.232Z,10.83
2018-01-22T13:53:56.835Z,10.40
2018-01-22T13:56:23.758Z,10.47
2018-01-22T13:58:50.395Z,10.43
2018-01-22T14:01:17.299Z,10.00
2018-01-22T14:03:43.901Z,11.03
2018-01-22T14:06:10.495Z,10.40
2018-01-22T14:08:37.107Z,9.33
2018-01-22T14:11:04.594Z,9.30
2018-01-22T14:13:31.211Z,10.83
2018-01-22T14:15:57.816Z,10.03
2018-01-22T14:18:26.367Z,9.20
2018-01-22T14:20:52.988Z,8.90
2018-01-22T14:23:19.606Z,9.30
2018-01-22T14:25:46.260Z,8.90
2018-01-22T14:28:13.090Z,8.93
2018-01-22T14:30:39.736Z,9.07
2018-01-22T14:33:06.376Z,9.47
2018-01-22T14:35:33.008Z,8.60
2018-01-22T14:38:00.012Z,8.70
2018-01-22T14:40:26.604Z,8.40
2018-01-22T14:42:53.224Z,8.37
2018-01-22T14:45:19.823Z,8.27
2018-01-22T14:47:46.423Z,8.37
2018-01-22T14:50:13.031Z,8.63
2018-01-22T14:52:39.636Z,8.00
2018-01-22T14:55:06.231Z,8.03
2018-01-22T14:57:32.845Z,9.07
2018-01-22T14:59:59.427Z,8.43
2018-01-22T15:02:26.041Z,8.17
2018-01-22T15:04:52.632Z,8.20
2018-01-22T15:07:19.232Z,7.57
2018-01-22T15:09:45.827Z,8.23
2018-01-22T15:12:12.420Z,8.70
2018-01-22T15:14:39.276Z,8.87
2018-01-22T15:17:05.876Z,7.57
2018-01-22T15:19:32.508Z,7.97
2018-01-22T15:21:59.107Z,7.70
2018-01-22T15:24:25.700Z,7.20
2018-01-22T15:26:52.574Z,8.03
2018-01-22T15:29:19.151Z,7.50
2018-01-22T15:31:45.751Z,7.93
2018-01-22T15:34:12.348Z,7.40
2018-01-22T15:36:38.944Z,7.27
2018-01-22T15:39:05.563Z,7.10
2018-01-22T15:41:32.163Z,6.93
2018-01-22T15:43:58.755Z,7.50
2018-01-22T15:46:25.379Z,7.47
2018-01-22T15:48:51.984Z,6.50
2018-01-22T15:51:18.589Z,7.03
2018-01-22T15:53:45.183Z,6.53
2018-01-22T15:56:11.787Z,6.93
2018-01-22T15:58:38.452Z,7.20
2018-01-22T16:01:05.033Z,6.60
2018-01-22T16:03:31.635Z,7.17
2018-01-22T16:05:58.231Z,7.00
2018-01-22T16:08:24.836Z,6.50
2018-01-22T16:10:51.431Z,6.90
2018-01-22T16:13:18.027Z,7.60
2018-01-22T16:15:44.647Z,6.83
2018-01-22T16:18:11.245Z,8.10
2018-01-22T16:20:37.831Z,8.50
2018-01-22T16:23:04.433Z,7.37
2018-01-22T16:25:31.034Z,7.20
2018-01-22T16:27:57.642Z,8.20
2018-01-22T16:30:24.263Z,8.63
2018-01-22T16:32:50.861Z,7.80
2018-01-22T16:35:17.456Z,7.70
2018-01-22T16:37:44.054Z,7.90
2018-01-22T16:40:10.659Z,7.20
2018-01-22T16:42:37.280Z,7.20
2018-01-22T16:45:03.866Z,7.80
2018-01-22T16:47:36.132Z,7.40
2018-01-22T16:50:02.729Z,8.80
2018-01-22T16:52:29.312Z,8.20
2018-01-22T16:54:55.920Z,8.20
2018-01-22T16:57:22.529Z,7.40
2018-01-22T16:59:49.123Z,7.10
2018-01-22T17:02:15.723Z,7.80
2018-01-22T17:04:42.348Z,7.03
2018-01-22T17:07:08.959Z,7.30
2018-01-22T17:09:35.563Z,7.60
2018-01-22T17:12:02.161Z,8.03
2018-01-22T17:14:28.760Z,7.30
2018-01-22T17:16:55.351Z,7.83
2018-01-22T17:19:21.955Z,8.00
2018-01-22T17:21:48.551Z,7.37
2018-01-22T17:24:15.159Z,8.13
2018-01-22T17:26:41.765Z,8.17
2018-01-22T17:29:08.355Z,8.50
2018-01-22T17:31:35.302Z,8.60
2018-01-22T17:34:01.851Z,8.20
2018-01-22T17:36:28.450Z,7.90
2018-01-22T17:38:55.052Z,8.70
2018-01-22T17:41:21.654Z,8.00
2018-01-22T17:43:48.519Z,7.30
2018-01-22T17:46:15.111Z,8.60
2018-01-22T17:48:41.711Z,7.30
2018-01-22T17:51:08.322Z,10.63
2018-01-22T17:53:34.976Z,9.77
2018-01-22T17:56:01.583Z,9.20
2018-01-22T17:58:28.247Z,7.97
2018-01-22T18:00:54.843Z,7.67
2018-01-22T18:03:21.486Z,6.80
2018-01-22T18:05:48.089Z,5.73
2018-01-22T18:08:14.687Z,7.47
2018-01-22T18:10:41.325Z,7.47
2018-01-22T18:13:07.948Z,7.53
2018-01-22T18:15:35.592Z,7.37
2018-01-22T18:18:02.188Z,8.80
2018-01-22T18:20:28.787Z,8.80
2018-01-22T18:22:55.388Z,9.10
2018-01-22T18:25:22.011Z,8.63
2018-01-22T18:27:48.592Z,7.97
2018-01-22T18:30:15.222Z,8.57
2018-01-22T18:32:41.828Z,9.00
2018-01-22T18:35:09.882Z,9.03
2018-01-22T18:37:36.652Z,8.00
2018-01-22T18:40:03.253Z,9.27
2018-01-22T18:42:29.848Z,9.23
2018-01-22T18:44:56.449Z,9.23
2018-01-22T18:47:23.072Z,9.00
2018-01-22T18:49:49.684Z,9.20
2018-01-22T18:52:16.332Z,10.50
2018-01-22T18:54:42.955Z,8.40
2018-01-22T18:57:10.511Z,9.10
2018-01-22T18:59:37.105Z,9.30
2018-01-22T19:02:03.748Z,9.30
2018-01-22T19:04:30.344Z,9.40
2018-01-22T19:06:56.941Z,9.60
2018-01-22T19:09:23.561Z,11.50
2018-01-22T19:11:50.203Z,10.20
2018-01-22T19:14:17.077Z,10.20
2018-01-22T19:16:43.675Z,10.33
2018-01-22T19:19:10.298Z,12.20
2018-01-22T19:21:36.900Z,9.23
2018-01-22T19:24:03.491Z,9.57
2018-01-22T19:26:30.103Z,9.60
2018-01-22T19:28:56.733Z,10.30
2018-01-22T19:31:23.324Z,12.40
2018-01-22T19:33:49.928Z,10.50
2018-01-22T19:36:16.528Z,11.07
2018-01-22T19:38:43.477Z,9.63
2018-01-22T19:41:10.076Z,8.20
2018-01-22T19:43:36.697Z,8.67
2018-01-22T19:46:03.299Z,8.07
2018-01-22T19:48:29.919Z,8.57
2018-01-22T19:50:56.515Z,8.30
2018-01-22T19:53:23.419Z,8.83
2018-01-22T19:55:50.016Z,8.00
2018-01-22T19:58:16.611Z,8.00
2018-01-22T20:00:43.224Z,8.33
2018-01-22T20:03:09.833Z,8.70
2018-01-22T20:05:36.483Z,9.00
2018-01-22T20:08:03.107Z,10.20
2018-01-22T20:10:29.707Z,9.30
2018-01-22T20:12:56.317Z,9.43
2018-01-22T20:15:22.970Z,9.37
2018-01-22T20:17:49.587Z,10.37
2018-01-22T20:20:16.195Z,10.20
2018-01-22T20:22:42.791Z,10.00
2018-01-22T20:25:09.443Z,10.43
2018-01-22T20:27:36.124Z,10.60
2018-01-22T20:30:02.745Z,10.73
2018-01-22T20:32:29.340Z,9.57
2018-01-22T20:34:56.935Z,10.50
2018-01-22T20:37:23.539Z,9.67
2018-01-22T20:39:50.140Z,10.00
2018-01-22T20:42:17.083Z,10.30
2018-01-22T20:44:43.704Z,10.10
2018-01-22T20:47:10.336Z,10.30
2018-01-22T20:49:36.934Z,9.07
2018-01-22T20:52:03.530Z,9.70
2018-01-22T20:54:30.431Z,10.40
2018-01-22T20:56:57.032Z,11.93
2018-01-22T20:59:23.652Z,10.00
2018-01-22T21:01:50.268Z,9.47
2018-01-22T21:04:16.884Z,9.73
2018-01-22T21:06:43.508Z,9.67
2018-01-22T21:09:10.120Z,9.63
2018-01-22T21:11:36.737Z,10.73
2018-01-22T21:14:03.327Z,9.37
2018-01-22T21:16:29.938Z,9.97
2018-01-22T21:18:56.580Z,10.53
2018-01-22T21:21:23.207Z,10.13
2018-01-22T21:23:49.853Z,9.80
2018-01-22T21:26:16.408Z,8.90
2018-01-22T21:28:43.003Z,9.10
2018-01-22T21:31:09.611Z,9.50
2018-01-22T21:33:36.219Z,9.47
2018-01-22T21:36:02.840Z,8.50
2018-01-22T21:38:29.456Z,9.00
2018-01-22T21:40:56.044Z,8.60
2018-01-22T21:43:22.650Z,8.60
2018-01-22T21:45:49.243Z,8.20
2018-01-22T21:48:15.840Z,8.23
2018-01-22T21:50:42.439Z,8.00
2018-01-22T21:53:09.061Z,7.33
2018-01-22T21:55:35.959Z,7.70
2018-01-22T21:58:02.553Z,6.80
2018-01-22T22:00:29.159Z,6.80
2018-01-22T22:02:56.771Z,7.40
2018-01-22T22:05:23.374Z,6.57
2018-01-22T22:07:49.975Z,7.20
2018-01-22T22:10:16.571Z,5.90
2018-01-22T22:12:43.171Z,6.03
2018-01-22T22:15:09.786Z,5.63
2018-01-22T22:17:36.392Z,6.47
2018-01-22T22:20:03.021Z,6.07
2018-01-22T22:22:29.612Z,6.00
2018-01-22T22:24:56.204Z,5.80
2018-01-22T22:27:22.803Z,6.27
2018-01-22T22:29:49.415Z,6.23
2018-01-22T22:32:16.283Z,5.47
2018-01-22T22:34:42.877Z,5.87
2018-01-22T22:37:09.476Z,6.17
2018-01-22T22:39:36.080Z,6.60
2018-01-22T22:42:02.671Z,5.97
2018-01-22T22:44:29.287Z,6.50
2018-01-22T22:46:55.879Z,6.87
2018-01-22T22:49:22.476Z,6.90
2018-01-22T22:51:49.351Z,6.47
2018-01-22T22:54:15.943Z,7.00
2018-01-22T22:56:42.547Z,5.57
2018-01-22T22:59:09.502Z,5.37
2018-01-22T23:01:36.109Z,5.20
2018-01-22T23:04:02.704Z,5.70
2018-01-22T23:06:29.324Z,5.00
2018-01-22T23:08:55.916Z,5.27
2018-01-22T23:11:22.523Z,5.50
2018-01-22T23:13:49.128Z,5.90
2018-01-22T23:16:15.724Z,5.20
2018-01-22T23:18:42.323Z,5.93
2018-01-22T23:21:08.928Z,4.80
2018-01-22T23:23:35.531Z,5.30
2018-01-22T23:26:02.127Z,6.00
2018-01-22T23:28:28.719Z,5.70
2018-01-22T23:30:55.328Z,5.83
2018-01-22T23:33:21.923Z,6.40
2018-01-22T23:35:48.538Z,6.47
2018-01-22T23:38:15.127Z,6.30
2018-01-22T23:40:41.724Z,6.23
2018-01-22T23:43:08.325Z,6.57
2018-01-22T23:45:35.008Z,7.07
2018-01-22T23:48:01.615Z,6.60
2018-01-22T23:50:28.215Z,7.03
2018-01-22T23:52:54.814Z,6.50
2018-01-22T23:55:21.416Z,6.80
2018-01-22T23:57:48.021Z,7.80
